sensor_id;sensor_type;location;lat;lon;timestamp;temperature;humidity
5806;DHT22;2929;50.810;8.342;2023-07-31T12:14:47;18.60;99.90
5806;DHT22;2929;50.810;8.342;2023-07-31T12:17:16;18.70;99.90
5806;DHT22;2929;50.810;8.342;2023-07-31T12:19:45;18.70;99.90
5806;DHT22;2929;50.810;8.342;2023-07-31T12:22:13;19.00;99.90
5806;DHT22;2929;50.810;8.342;2023-07-31T12:24:40;19.00;99.90
5806;DHT22;2929;50.810;8.342;2023-07-31T12:27:11;19.10;99.90
5806;DHT22;2929;50.810;8.342;2023-07-31T12:29:38;19.00;99.90
5806;DHT22;2929;50.810;8.342;2023-07-31T12:32:19;19.00;99.90
5806;DHT22;2929;50.810;8.342;2023-07-31T12:34:48;18.80;99.90
5806;DHT22;2929;50.810;8.342;2023-07-31T12:37:15;19.00;99.90
5806;DHT22;2929;50.810;8.342;2023-07-31T12:39:42;18.90;99.90
5806;DHT22;2929;50.810;8.342;2023-07-31T12:42:09;18.90;99.90
5806;DHT22;2929;50.810;8.342;2023-07-31T12:44:36;18.90;99.90
5806;DHT22;2929;50.810;8.342;2023-07-31T12:47:04;19.00;99.90
5806;DHT22;2929;50.810;8.342;2023-07-31T12:49:31;19.20;99.90
5806;DHT22;2929;50.810;8.342;2023-07-31T12:51:59;19.50;99.90
5806;DHT22;2929;50.810;8.342;2023-07-31T12:54:26;19.90;99.90
5806;DHT22;2929;50.810;8.342;2023-07-31T12:56:53;19.70;99.90
5806;DHT22;2929;50.810;8.342;2023-07-31T12:59:20;19.50;99.90
5806;DHT22;2929;50.810;8.342;2023-07-31T13:01:47;19.20;99.90
5806;DHT22;2929;50.810;8.342;2023-07-31T13:04:14;19.10;99.90
5806;DHT22;2929;50.810;8.342;2023-07-31T13:06:41;19.00;99.90
5806;DHT22;2929;50.810;8.342;2023-07-31T13:09:09;18.90;99.90
5806;DHT22;2929;50.810;8.342;2023-07-31T13:11:36;18.80;99.90
5806;DHT22;2929;50.810;8.342;2023-07-31T13:14:03;18.80;99.90
5806;DHT22;2929;50.810;8.342;2023-07-31T13:16:31;18.90;99.90
5806;DHT22;2929;50.810;8.342;2023-07-31T13:18:58;19.10;99.90
5806;DHT22;2929;50.810;8.342;2023-07-31T13:21:24;19.20;99.90
5806;DHT22;2929;50.810;8.342;2023-07-31T13:23:51;19.20;99.90
5806;DHT22;2929;50.810;8.342;2023-07-31T13:26:20;19.20;99.90
5806;DHT22;2929;50.810;8.342;2023-07-31T13:28:47;19.30;99.90
5806;DHT22;2929;50.810;8.342;2023-07-31T13:31:14;19.50;99.90
5806;DHT22;2929;50.810;8.342;2023-07-31T13:33:40;19.80;99.90
5806;DHT22;2929;50.810;8.342;2023-07-31T13:36:08;19.70;99.90
5806;DHT22;2929;50.810;8.342;2023-07-31T13:38:35;19.70;99.90
5806;DHT22;2929;50.810;8.342;2023-07-31T13:41:02;19.70;99.90
5806;DHT22;2929;50.810;8.342;2023-07-31T13:43:30;19.70;99.90
5806;DHT22;2929;50.810;8.342;2023-07-31T13:45:57;19.80;99.90
5806;DHT22;2929;50.810;8.342;2023-07-31T13:48:29;19.70;99.90
5806;DHT22;2929;50.810;8.342;2023-07-31T13:50:56;20.00;99.90
5806;DHT22;2929;50.810;8.342;2023-07-31T13:53:23;20.20;99.90
5806;DHT22;2929;50.810;8.342;2023-07-31T13:55:50;20.20;99.90
5806;DHT22;2929;50.810;8.342;2023-07-31T13:58:17;20.30;99.90
5806;DHT22;2929;50.810;8.342;2023-07-31T14:00:46;20.40;99.90
5806;DHT22;2929;50.810;8.342;2023-07-31T14:03:13;20.20;99.90
5806;DHT22;2929;50.810;8.342;2023-07-31T14:05:40;20.00;99.90
5806;DHT22;2929;50.810;8.342;2023-07-31T14:08:07;19.90;99.90
5806;DHT22;2929;50.810;8.342;2023-07-31T14:10:33;19.70;99.90
5806;DHT22;2929;50.810;8.342;2023-07-31T14:13:00;19.70;99.90
5806;DHT22;2929;50.810;8.342;2023-07-31T14:15:28;19.60;99.90
5806;DHT22;2929;50.810;8.342;2023-07-31T14:17:57;19.60;99.90
5806;DHT22;2929;50.810;8.342;2023-07-31T14:20:24;19.50;99.90
5806;DHT22;2929;50.810;8.342;2023-07-31T14:22:50;19.50;99.90
5806;DHT22;2929;50.810;8.342;2023-07-31T14:25:17;19.70;99.90
5806;DHT22;2929;50.810;8.342;2023-07-31T14:27:44;19.80;99.90
5806;DHT22;2929;50.810;8.342;2023-07-31T14:30:11;19.90;99.90
5806;DHT22;2929;50.810;8.342;2023-07-31T14:32:38;19.90;99.90
5806;DHT22;2929;50.810;8.342;2023-07-31T14:35:07;19.80;99.90
5806;DHT22;2929;50.810;8.342;2023-07-31T14:37:38;19.80;99.90
5806;DHT22;2929;50.810;8.342;2023-07-31T14:40:07;19.60;99.90
5806;DHT22;2929;50.810;8.342;2023-07-31T14:42:34;19.50;99.90
5806;DHT22;2929;50.810;8.342;2023-07-31T14:45:01;19.30;99.90
5806;DHT22;2929;50.810;8.342;2023-07-31T14:47:28;19.30;99.90
5806;DHT22;2929;50.810;8.342;2023-07-31T14:49:56;19.30;99.90
5806;DHT22;2929;50.810;8.342;2023-07-31T14:52:25;19.30;99.90
5806;DHT22;2929;50.810;8.342;2023-07-31T14:54:52;19.30;99.90
5806;DHT22;2929;50.810;8.342;2023-07-31T14:57:19;19.30;99.90
5806;DHT22;2929;50.810;8.342;2023-07-31T14:59:46;19.30;99.90
5806;DHT22;2929;50.810;8.342;2023-07-31T15:02:15;19.50;99.90
5806;DHT22;2929;50.810;8.342;2023-07-31T15:04:42;19.60;99.90
5806;DHT22;2929;50.810;8.342;2023-07-31T15:07:09;19.80;99.90
5806;DHT22;2929;50.810;8.342;2023-07-31T15:09:37;19.90;99.90
5806;DHT22;2929;50.810;8.342;2023-07-31T15:12:04;19.90;99.90
5806;DHT22;2929;50.810;8.342;2023-07-31T15:14:31;20.00;99.90
5806;DHT22;2929;50.810;8.342;2023-07-31T15:17:00;19.90;99.90
5806;DHT22;2929;50.810;8.342;2023-07-31T15:19:27;19.80;99.90
5806;DHT22;2929;50.810;8.342;2023-07-31T15:21:55;19.80;99.90
5806;DHT22;2929;50.810;8.342;2023-07-31T15:24:22;19.70;99.90
5806;DHT22;2929;50.810;8.342;2023-07-31T15:26:50;19.70;99.90
5806;DHT22;2929;50.810;8.342;2023-07-31T15:29:17;19.60;99.90
5806;DHT22;2929;50.810;8.342;2023-07-31T15:31:45;19.60;99.90
5806;DHT22;2929;50.810;8.342;2023-07-31T15:34:12;19.50;99.90
5806;DHT22;2929;50.810;8.342;2023-07-31T15:36:39;19.50;99.90
5806;DHT22;2929;50.810;8.342;2023-07-31T15:39:06;19.40;99.90
5806;DHT22;2929;50.810;8.342;2023-07-31T15:41:34;19.20;99.90
5806;DHT22;2929;50.810;8.342;2023-07-31T15:44:03;19.00;99.90
5806;DHT22;2929;50.810;8.342;2023-07-31T15:46:30;18.80;99.90
5806;DHT22;2929;50.810;8.342;2023-07-31T15:48:57;18.70;99.90
5806;DHT22;2929;50.810;8.342;2023-07-31T15:51:24;18.70;99.90
5806;DHT22;2929;50.810;8.342;2023-07-31T15:53:52;18.60;99.90
5806;DHT22;2929;50.810;8.342;2023-07-31T15:56:19;18.60;99.90
5806;DHT22;2929;50.810;8.342;2023-07-31T15:58:46;18.60;99.90
5806;DHT22;2929;50.810;8.342;2023-07-31T16:01:14;18.60;99.90
5806;DHT22;2929;50.810;8.342;2023-07-31T16:03:41;18.60;99.90
5806;DHT22;2929;50.810;8.342;2023-07-31T16:06:08;18.60;99.90
5806;DHT22;2929;50.810;8.342;2023-07-31T16:08:35;18.50;99.90
5806;DHT22;2929;50.810;8.342;2023-07-31T16:11:06;18.50;99.90
5806;DHT22;2929;50.810;8.342;2023-07-31T16:13:33;18.50;99.90
5806;DHT22;2929;50.810;8.342;2023-07-31T16:16:00;18.50;99.90
5806;DHT22;2929;50.810;8.342;2023-07-31T16:18:29;18.50;99.90
5806;DHT22;2929;50.810;8.342;2023-07-31T16:20:56;18.40;99.90
5806;DHT22;2929;50.810;8.342;2023-07-31T16:23:24;18.40;99.90
5806;DHT22;2929;50.810;8.342;2023-07-31T16:25:51;18.40;99.90
5806;DHT22;2929;50.810;8.342;2023-07-31T16:28:19;18.40;99.90
5806;DHT22;2929;50.810;8.342;2023-07-31T16:30:46;18.40;99.90
5806;DHT22;2929;50.810;8.342;2023-07-31T16:33:14;18.40;99.90
5806;DHT22;2929;50.810;8.342;2023-07-31T16:35:42;18.30;99.90
5806;DHT22;2929;50.810;8.342;2023-07-31T16:38:09;18.20;99.90
5806;DHT22;2929;50.810;8.342;2023-07-31T16:40:36;18.20;99.90
5806;DHT22;2929;50.810;8.342;2023-07-31T16:43:03;18.20;99.90
5806;DHT22;2929;50.810;8.342;2023-07-31T16:45:30;18.10;99.90
5806;DHT22;2929;50.810;8.342;2023-07-31T16:47:57;18.00;99.90
5806;DHT22;2929;50.810;8.342;2023-07-31T16:50:23;18.10;99.90
5806;DHT22;2929;50.810;8.342;2023-07-31T16:52:52;18.00;99.90
5806;DHT22;2929;50.810;8.342;2023-07-31T16:55:19;18.00;99.90
5806;DHT22;2929;50.810;8.342;2023-07-31T16:57:47;17.90;99.90
5806;DHT22;2929;50.810;8.342;2023-07-31T17:00:15;17.80;99.90
5806;DHT22;2929;50.810;8.342;2023-07-31T17:02:42;17.80;99.90
5806;DHT22;2929;50.810;8.342;2023-07-31T17:05:09;17.80;99.90
5806;DHT22;2929;50.810;8.342;2023-07-31T17:07:35;17.80;99.90
5806;DHT22;2929;50.810;8.342;2023-07-31T17:10:05;17.70;99.90
5806;DHT22;2929;50.810;8.342;2023-07-31T17:12:32;17.70;99.90
5806;DHT22;2929;50.810;8.342;2023-07-31T17:14:59;17.70;99.90
5806;DHT22;2929;50.810;8.342;2023-07-31T17:17:26;17.60;99.90
5806;DHT22;2929;50.810;8.342;2023-07-31T17:19:53;17.60;99.90
5806;DHT22;2929;50.810;8.342;2023-07-31T17:22:21;17.60;99.90
5806;DHT22;2929;50.810;8.342;2023-07-31T17:24:47;17.70;99.90
5806;DHT22;2929;50.810;8.342;2023-07-31T17:27:16;17.70;99.90
5806;DHT22;2929;50.810;8.342;2023-07-31T17:29:43;17.70;99.90
5806;DHT22;2929;50.810;8.342;2023-07-31T17:32:10;17.70;99.90
5806;DHT22;2929;50.810;8.342;2023-07-31T17:34:37;17.70;99.90
5806;DHT22;2929;50.810;8.342;2023-07-31T17:37:04;17.70;99.90
5806;DHT22;2929;50.810;8.342;2023-07-31T17:39:31;17.60;99.90
5806;DHT22;2929;50.810;8.342;2023-07-31T17:41:57;17.60;99.90
5806;DHT22;2929;50.810;8.342;2023-07-31T17:44:26;17.50;99.90
5806;DHT22;2929;50.810;8.342;2023-07-31T17:46:53;17.40;99.90
5806;DHT22;2929;50.810;8.342;2023-07-31T17:49:20;17.40;99.90
5806;DHT22;2929;50.810;8.342;2023-07-31T17:51:47;17.30;99.90
5806;DHT22;2929;50.810;8.342;2023-07-31T17:54:14;17.20;99.90
5806;DHT22;2929;50.810;8.342;2023-07-31T17:56:41;17.20;99.90
5806;DHT22;2929;50.810;8.342;2023-07-31T17:59:08;17.10;99.90
5806;DHT22;2929;50.810;8.342;2023-07-31T18:01:38;17.10;99.90
5806;DHT22;2929;50.810;8.342;2023-07-31T18:04:05;17.10;99.90
5806;DHT22;2929;50.810;8.342;2023-07-31T18:06:33;17.00;99.90
5806;DHT22;2929;50.810;8.342;2023-07-31T18:09:00;17.10;99.90
5806;DHT22;2929;50.810;8.342;2023-07-31T18:11:27;17.00;99.90
5806;DHT22;2929;50.810;8.342;2023-07-31T18:13:56;16.90;99.90
5806;DHT22;2929;50.810;8.342;2023-07-31T18:16:23;16.80;99.90
5806;DHT22;2929;50.810;8.342;2023-07-31T18:18:51;16.70;99.90
5806;DHT22;2929;50.810;8.342;2023-07-31T18:21:18;16.60;99.90
5806;DHT22;2929;50.810;8.342;2023-07-31T18:23:45;16.50;99.90
5806;DHT22;2929;50.810;8.342;2023-07-31T18:26:12;16.50;99.90
5806;DHT22;2929;50.810;8.342;2023-07-31T18:28:39;16.40;99.90
5806;DHT22;2929;50.810;8.342;2023-07-31T18:31:06;16.40;99.90
5806;DHT22;2929;50.810;8.342;2023-07-31T18:33:33;16.40;99.90
5806;DHT22;2929;50.810;8.342;2023-07-31T18:36:03;16.40;99.90
5806;DHT22;2929;50.810;8.342;2023-07-31T18:38:30;16.30;99.90
5806;DHT22;2929;50.810;8.342;2023-07-31T18:40:58;16.20;99.90
5806;DHT22;2929;50.810;8.342;2023-07-31T18:43:25;16.20;99.90
5806;DHT22;2929;50.810;8.342;2023-07-31T18:45:52;16.20;99.90
5806;DHT22;2929;50.810;8.342;2023-07-31T18:48:19;16.20;99.90
5806;DHT22;2929;50.810;8.342;2023-07-31T18:50:46;16.20;99.90
5806;DHT22;2929;50.810;8.342;2023-07-31T18:53:15;16.20;99.90
5806;DHT22;2929;50.810;8.342;2023-07-31T18:55:43;16.10;99.90
5806;DHT22;2929;50.810;8.342;2023-07-31T18:58:10;16.00;99.90
5806;DHT22;2929;50.810;8.342;2023-07-31T19:00:37;16.00;99.90
5806;DHT22;2929;50.810;8.342;2023-07-31T19:03:04;16.00;99.90
5806;DHT22;2929;50.810;8.342;2023-07-31T19:05:31;16.00;99.90
5806;DHT22;2929;50.810;8.342;2023-07-31T19:07:58;16.00;99.90
5806;DHT22;2929;50.810;8.342;2023-07-31T19:10:32;16.00;99.90
5806;DHT22;2929;50.810;8.342;2023-07-31T19:13:00;16.00;99.90
5806;DHT22;2929;50.810;8.342;2023-07-31T19:15:27;15.90;99.90
5806;DHT22;2929;50.810;8.342;2023-07-31T19:17:54;15.90;99.90
5806;DHT22;2929;50.810;8.342;2023-07-31T19:20:21;15.90;99.90
5806;DHT22;2929;50.810;8.342;2023-07-31T19:22:48;15.80;99.90
5806;DHT22;2929;50.810;8.342;2023-07-31T19:25:15;15.90;99.90
5806;DHT22;2929;50.810;8.342;2023-07-31T19:27:43;15.80;99.90
5806;DHT22;2929;50.810;8.342;2023-07-31T19:30:11;15.80;99.90
5806;DHT22;2929;50.810;8.342;2023-07-31T19:32:38;15.70;99.90
5806;DHT22;2929;50.810;8.342;2023-07-31T19:35:05;15.70;99.90
5806;DHT22;2929;50.810;8.342;2023-07-31T19:37:32;15.60;99.90
5806;DHT22;2929;50.810;8.342;2023-07-31T19:39:59;15.60;99.90
5806;DHT22;2929;50.810;8.342;2023-07-31T19:42:26;15.60;99.90
5806;DHT22;2929;50.810;8.342;2023-07-31T19:44:54;15.60;99.90
5806;DHT22;2929;50.810;8.342;2023-07-31T19:47:21;15.60;99.90
5806;DHT22;2929;50.810;8.342;2023-07-31T19:49:48;15.60;99.90
5806;DHT22;2929;50.810;8.342;2023-07-31T19:52:15;15.60;99.90
5806;DHT22;2929;50.810;8.342;2023-07-31T19:54:42;15.60;99.90
5806;DHT22;2929;50.810;8.342;2023-07-31T19:57:09;15.60;99.90
5806;DHT22;2929;50.810;8.342;2023-07-31T19:59:36;15.60;99.90
5806;DHT22;2929;50.810;8.342;2023-07-31T20:02:05;15.70;99.90
5806;DHT22;2929;50.810;8.342;2023-07-31T20:04:32;15.70;99.90
5806;DHT22;2929;50.810;8.342;2023-07-31T20:06:58;15.60;99.90
5806;DHT22;2929;50.810;8.342;2023-07-31T20:09:26;15.60;99.90
5806;DHT22;2929;50.810;8.342;2023-07-31T20:11:53;15.60;99.90
5806;DHT22;2929;50.810;8.342;2023-07-31T20:14:20;15.60;99.90
5806;DHT22;2929;50.810;8.342;2023-07-31T20:16:47;15.50;99.90
5806;DHT22;2929;50.810;8.342;2023-07-31T20:19:16;15.50;99.90
5806;DHT22;2929;50.810;8.342;2023-07-31T20:21:43;15.50;99.90
5806;DHT22;2929;50.810;8.342;2023-07-31T20:24:10;15.50;99.90
5806;DHT22;2929;50.810;8.342;2023-07-31T20:26:37;15.40;99.90
5806;DHT22;2929;50.810;8.342;2023-07-31T20:29:04;15.40;99.90
5806;DHT22;2929;50.810;8.342;2023-07-31T20:31:31;15.50;99.90
5806;DHT22;2929;50.810;8.342;2023-07-31T20:33:58;15.50;99.90
5806;DHT22;2929;50.810;8.342;2023-07-31T20:36:26;15.40;99.90
5806;DHT22;2929;50.810;8.342;2023-07-31T20:38:53;15.50;99.90
5806;DHT22;2929;50.810;8.342;2023-07-31T20:41:20;15.50;99.90
5806;DHT22;2929;50.810;8.342;2023-07-31T20:43:47;15.50;99.90
5806;DHT22;2929;50.810;8.342;2023-07-31T20:46:14;15.60;99.90
5806;DHT22;2929;50.810;8.342;2023-07-31T20:48:41;15.50;99.90
5806;DHT22;2929;50.810;8.342;2023-07-31T20:51:08;15.50;99.90
5806;DHT22;2929;50.810;8.342;2023-07-31T20:53:36;15.50;99.90
5806;DHT22;2929;50.810;8.342;2023-07-31T20:56:04;15.50;99.90
5806;DHT22;2929;50.810;8.342;2023-07-31T20:58:31;15.50;99.90
5806;DHT22;2929;50.810;8.342;2023-07-31T21:00:58;15.40;99.90
5806;DHT22;2929;50.810;8.342;2023-07-31T21:03:25;15.40;99.90
5806;DHT22;2929;50.810;8.342;2023-07-31T21:05:52;15.40;99.90
5806;DHT22;2929;50.810;8.342;2023-07-31T21:08:19;15.50;99.90
5806;DHT22;2929;50.810;8.342;2023-07-31T21:10:50;15.50;99.90
5806;DHT22;2929;50.810;8.342;2023-07-31T21:13:17;15.50;99.90
5806;DHT22;2929;50.810;8.342;2023-07-31T21:15:44;15.50;99.90
5806;DHT22;2929;50.810;8.342;2023-07-31T21:18:12;15.50;99.90
5806;DHT22;2929;50.810;8.342;2023-07-31T21:20:46;15.50;99.90
5806;DHT22;2929;50.810;8.342;2023-07-31T21:23:13;15.50;99.90
5806;DHT22;2929;50.810;8.342;2023-07-31T21:25:40;15.50;99.90
5806;DHT22;2929;50.810;8.342;2023-07-31T21:28:08;15.50;99.90
5806;DHT22;2929;50.810;8.342;2023-07-31T21:30:37;15.50;99.90
5806;DHT22;2929;50.810;8.342;2023-07-31T21:33:04;15.50;99.90
5806;DHT22;2929;50.810;8.342;2023-07-31T21:35:31;15.40;99.90
5806;DHT22;2929;50.810;8.342;2023-07-31T21:37:58;15.50;99.90
5806;DHT22;2929;50.810;8.342;2023-07-31T21:40:25;15.50;99.90
5806;DHT22;2929;50.810;8.342;2023-07-31T21:42:52;15.50;99.90
5806;DHT22;2929;50.810;8.342;2023-07-31T21:45:21;15.50;99.90
5806;DHT22;2929;50.810;8.342;2023-07-31T21:47:49;15.50;99.90
5806;DHT22;2929;50.810;8.342;2023-07-31T21:50:16;15.50;99.90
5806;DHT22;2929;50.810;8.342;2023-07-31T21:52:43;15.50;99.90
5806;DHT22;2929;50.810;8.342;2023-07-31T21:55:10;15.50;99.90
5806;DHT22;2929;50.810;8.342;2023-07-31T21:57:37;15.50;99.90
5806;DHT22;2929;50.810;8.342;2023-07-31T22:00:05;15.50;99.90
5806;DHT22;2929;50.810;8.342;2023-07-31T22:02:33;15.50;99.90
5806;DHT22;2929;50.810;8.342;2023-07-31T22:05:01;15.50;99.90
5806;DHT22;2929;50.810;8.342;2023-07-31T22:07:28;15.50;99.90
5806;DHT22;2929;50.810;8.342;2023-07-31T22:09:55;15.50;99.90
5806;DHT22;2929;50.810;8.342;2023-07-31T22:12:22;15.50;99.90
5806;DHT22;2929;50.810;8.342;2023-07-31T22:14:49;15.50;99.90
5806;DHT22;2929;50.810;8.342;2023-07-31T22:17:16;15.50;99.90
5806;DHT22;2929;50.810;8.342;2023-07-31T22:19:44;15.50;99.90
5806;DHT22;2929;50.810;8.342;2023-07-31T22:22:11;15.50;99.90
5806;DHT22;2929;50.810;8.342;2023-07-31T22:24:38;15.50;99.90
5806;DHT22;2929;50.810;8.342;2023-07-31T22:27:05;15.50;99.90
5806;DHT22;2929;50.810;8.342;2023-07-31T22:29:32;15.50;99.90
5806;DHT22;2929;50.810;8.342;2023-07-31T22:31:59;15.50;99.90
5806;DHT22;2929;50.810;8.342;2023-07-31T22:34:26;15.60;99.90
5806;DHT22;2929;50.810;8.342;2023-07-31T22:36:55;15.60;99.90
5806;DHT22;2929;50.810;8.342;2023-07-31T22:39:21;15.50;99.90
5806;DHT22;2929;50.810;8.342;2023-07-31T22:41:48;15.60;99.90
5806;DHT22;2929;50.810;8.342;2023-07-31T22:44:15;15.60;99.90
5806;DHT22;2929;50.810;8.342;2023-07-31T22:46:42;15.60;99.90
5806;DHT22;2929;50.810;8.342;2023-07-31T22:49:09;15.60;99.90
5806;DHT22;2929;50.810;8.342;2023-07-31T22:51:37;15.60;99.90
5806;DHT22;2929;50.810;8.342;2023-07-31T22:54:05;15.60;99.90
5806;DHT22;2929;50.810;8.342;2023-07-31T22:56:32;15.60;99.90
5806;DHT22;2929;50.810;8.342;2023-07-31T22:58:59;15.60;99.90
5806;DHT22;2929;50.810;8.342;2023-07-31T23:01:26;15.70;99.90
5806;DHT22;2929;50.810;8.342;2023-07-31T23:03:53;15.60;99.90
5806;DHT22;2929;50.810;8.342;2023-07-31T23:06:20;15.60;99.90
5806;DHT22;2929;50.810;8.342;2023-07-31T23:08:47;15.60;99.90
5806;DHT22;2929;50.810;8.342;2023-07-31T23:11:15;15.60;99.90
5806;DHT22;2929;50.810;8.342;2023-07-31T23:13:42;15.60;99.90
5806;DHT22;2929;50.810;8.342;2023-07-31T23:16:09;15.60;99.90
5806;DHT22;2929;50.810;8.342;2023-07-31T23:18:36;15.60;99.90
5806;DHT22;2929;50.810;8.342;2023-07-31T23:21:04;15.60;99.90
5806;DHT22;2929;50.810;8.342;2023-07-31T23:23:31;15.60;99.90
5806;DHT22;2929;50.810;8.342;2023-07-31T23:25:58;15.60;99.90
5806;DHT22;2929;50.810;8.342;2023-07-31T23:28:26;15.60;99.90
5806;DHT22;2929;50.810;8.342;2023-07-31T23:30:53;15.60;99.90
5806;DHT22;2929;50.810;8.342;2023-07-31T23:33:27;15.60;99.90
5806;DHT22;2929;50.810;8.342;2023-07-31T23:35:54;15.60;99.90
5806;DHT22;2929;50.810;8.342;2023-07-31T23:38:21;15.60;99.90
5806;DHT22;2929;50.810;8.342;2023-07-31T23:40:48;15.50;99.90
5806;DHT22;2929;50.810;8.342;2023-07-31T23:43:14;15.60;99.90
5806;DHT22;2929;50.810;8.342;2023-07-31T23:45:43;15.60;99.90
5806;DHT22;2929;50.810;8.342;2023-07-31T23:48:10;15.50;99.90
5806;DHT22;2929;50.810;8.342;2023-07-31T23:50:37;15.60;99.90
5806;DHT22;2929;50.810;8.342;2023-07-31T23:53:04;15.60;99.90
5806;DHT22;2929;50.810;8.342;2023-07-31T23:55:31;15.60;99.90
5806;DHT22;2929;50.810;8.342;2023-07-31T23:57:59;15.70;99.90
